Time;durP1;ratioP1;P1;durP2;ratioP2;P2;SDS_P1;SDS_P2;PMS_P1;PMS_P2;Temp;Humidity;BMP_temperature;BMP_pressure;BME280_temperature;BME280_humidity;BME280_pressure;Samples;Min_cycle;Max_cycle;Signal;HPM_P1;HPM_P2
2022/03/16 00:02:20;;;;;;;47.50;27.00;;;6.90;99.90;;;;;;5092864;28;20370;-63
2022/03/16 00:04:50;;;;;;;49.13;27.85;;;6.90;99.90;;;;;;5109748;28;20441;-63
2022/03/16 00:07:17;;;;;;;49.42;27.80;;;6.90;99.90;;;;;;5111001;28;20051;-63
2022/03/16 00:09:43;;;;;;;48.35;26.80;;;6.80;99.90;;;;;;5110295;28;20044;-63
2022/03/16 00:12:09;;;;;;;50.92;27.65;;;6.80;99.90;;;;;;5110142;28;20046;-62
2022/03/16 00:14:36;;;;;;;48.40;27.40;;;6.80;99.90;;;;;;5092089;28;20048;-62
2022/03/16 00:17:03;;;;;;;47.08;28.35;;;6.70;99.90;;;;;;5091788;28;20378;-64
2022/03/16 00:19:28;;;;;;;47.88;28.63;;;6.70;99.90;;;;;;5109741;28;20063;-63
2022/03/16 00:21:56;;;;;;;50.05;27.67;;;6.70;99.90;;;;;;5055457;28;20036;-62
2022/03/16 00:24:21;;;;;;;49.08;30.50;;;6.60;99.90;;;;;;5104990;28;20392;-62
2022/03/16 00:26:47;;;;;;;52.25;28.95;;;6.60;99.90;;;;;;5093658;28;20304;-62
2022/03/16 00:29:13;;;;;;;52.88;27.63;;;6.60;99.90;;;;;;5114078;28;20397;-62
2022/03/16 00:31:38;;;;;;;47.88;29.92;;;6.60;99.90;;;;;;5114061;28;20046;-63
2022/03/16 00:34:04;;;;;;;47.05;26.10;;;6.60;99.90;;;;;;5094837;28;20046;-63
2022/03/16 00:36:30;;;;;;;53.60;28.90;;;6.50;99.90;;;;;;5114108;28;20047;-62
2022/03/16 00:38:56;;;;;;;57.35;28.85;;;6.50;99.90;;;;;;5114773;28;20051;-63
2022/03/16 00:41:21;;;;;;;54.13;29.50;;;6.50;99.90;;;;;;5075819;28;20452;-61
2022/03/16 00:43:47;;;;;;;50.72;27.98;;;6.50;99.90;;;;;;5101887;28;20116;-62
2022/03/16 00:46:13;;;;;;;57.20;30.08;;;6.50;99.90;;;;;;5114007;28;20452;-62
2022/03/16 00:48:39;;;;;;;49.90;29.10;;;6.50;99.90;;;;;;5095978;28;20370;-62
2022/03/16 00:51:05;;;;;;;47.60;28.77;;;6.50;99.90;;;;;;5113790;28;20043;-63
2022/03/16 00:53:33;;;;;;;50.95;26.67;;;6.40;99.90;;;;;;5113491;28;20124;-63
2022/03/16 00:55:59;;;;;;;52.63;28.38;;;6.40;99.90;;;;;;5093529;28;20044;-62
2022/03/16 00:58:25;;;;;;;49.53;28.25;;;6.40;99.90;;;;;;5093701;28;20483;-63
2022/03/16 01:00:51;;;;;;;51.10;27.45;;;6.40;99.90;;;;;;5092247;28;20052;-62
2022/03/16 01:03:16;;;;;;;55.40;29.38;;;6.40;99.90;;;;;;5093901;28;20051;-63
2022/03/16 01:05:42;;;;;;;54.78;29.02;;;6.40;99.90;;;;;;5074145;28;20048;-63
2022/03/16 01:08:08;;;;;;;51.60;27.35;;;6.30;99.90;;;;;;5043684;28;20374;-63
2022/03/16 01:10:34;;;;;;;47.22;27.20;;;6.30;99.90;;;;;;5092664;28;20463;-62
2022/03/16 01:13:00;;;;;;;43.95;26.40;;;6.20;99.90;;;;;;5075429;28;20044;-62
2022/03/16 01:15:25;;;;;;;48.22;26.05;;;6.20;99.90;;;;;;5093322;28;20046;-62
2022/03/16 01:17:51;;;;;;;53.13;27.73;;;6.20;99.90;;;;;;5092469;28;20051;-64
2022/03/16 01:20:20;;;;;;;45.42;25.95;;;6.20;99.90;;;;;;5086943;28;20048;-62
2022/03/16 01:22:46;;;;;;;51.00;28.10;;;6.10;99.90;;;;;;5092407;28;20079;-64
2022/03/16 01:25:12;;;;;;;47.83;28.92;;;6.10;99.90;;;;;;5093780;28;20136;-63
2022/03/16 01:27:38;;;;;;;51.85;29.88;;;6.10;99.90;;;;;;5092255;28;20048;-63
2022/03/16 01:30:05;;;;;;;49.35;29.25;;;6.10;99.90;;;;;;5092769;28;20036;-62
2022/03/16 01:32:31;;;;;;;49.72;28.42;;;6.00;99.90;;;;;;5076757;28;20048;-62
2022/03/16 01:34:56;;;;;;;51.47;27.05;;;6.00;99.90;;;;;;5081254;28;20036;-63
2022/03/16 01:37:22;;;;;;;56.63;28.38;;;6.00;99.90;;;;;;5092443;28;20052;-62
2022/03/16 01:39:48;;;;;;;51.78;28.48;;;6.00;99.90;;;;;;5039973;28;20052;-62
2022/03/16 01:42:14;;;;;;;48.40;28.38;;;6.00;99.90;;;;;;5092714;28;20052;-62
2022/03/16 01:44:42;;;;;;;47.40;27.30;;;6.00;99.90;;;;;;5069257;28;20036;-63
2022/03/16 01:47:08;;;;;;;49.38;27.52;;;6.00;99.90;;;;;;5071216;28;20060;-65
2022/03/16 01:49:33;;;;;;;48.45;27.35;;;6.00;99.90;;;;;;5078869;28;20412;-62
2022/03/16 01:51:59;;;;;;;48.63;28.35;;;6.00;99.90;;;;;;5091929;28;20040;-63
2022/03/16 01:54:25;;;;;;;56.03;29.35;;;6.00;99.90;;;;;;5099745;28;20051;-63
2022/03/16 01:56:52;;;;;;;52.05;27.65;;;6.00;99.90;;;;;;5110568;28;20513;-63
2022/03/16 01:59:17;;;;;;;51.20;28.63;;;6.00;99.90;;;;;;5111812;28;20152;-62
2022/03/16 02:01:43;;;;;;;46.47;24.05;;;5.90;99.90;;;;;;5112175;28;20461;-63
2022/03/16 02:04:09;;;;;;;47.78;27.50;;;5.90;99.90;;;;;;5112640;28;20100;-62
2022/03/16 02:06:35;;;;;;;47.33;25.25;;;6.00;99.90;;;;;;5112638;28;20051;-63
2022/03/16 02:09:00;;;;;;;49.42;27.38;;;5.90;99.90;;;;;;5106013;28;20055;-63
2022/03/16 02:11:26;;;;;;;50.58;28.73;;;5.90;99.90;;;;;;5077251;28;20048;-63
2022/03/16 02:13:52;;;;;;;46.47;26.45;;;5.90;99.90;;;;;;5093877;28;20043;-61
2022/03/16 02:16:18;;;;;;;50.42;27.48;;;5.90;99.90;;;;;;5094664;28;20134;-62
2022/03/16 02:18:44;;;;;;;51.35;27.77;;;5.80;99.90;;;;;;5111852;28;20552;-62
2022/03/16 02:21:12;;;;;;;55.72;29.90;;;5.90;99.90;;;;;;5103900;28;20116;-63
2022/03/16 02:23:38;;;;;;;52.35;28.48;;;5.80;99.90;;;;;;5108293;28;20050;-63
2022/03/16 02:26:04;;;;;;;53.15;28.75;;;5.90;99.90;;;;;;5111721;28;20043;-63
2022/03/16 02:28:30;;;;;;;53.92;28.40;;;5.80;99.90;;;;;;5112170;28;20047;-61
2022/03/16 02:30:56;;;;;;;48.97;27.42;;;5.80;99.90;;;;;;5093381;28;20043;-63
2022/03/16 02:33:22;;;;;;;45.70;28.50;;;5.80;99.90;;;;;;5086496;28;20040;-63
2022/03/16 02:35:47;;;;;;;50.65;27.98;;;5.90;99.90;;;;;;5070032;28;20047;-63
2022/03/16 02:38:13;;;;;;;46.17;27.85;;;5.90;99.90;;;;;;5093724;28;20493;-62
2022/03/16 02:40:39;;;;;;;50.50;29.13;;;5.80;99.90;;;;;;5112341;28;20054;-63
2022/03/16 02:43:05;;;;;;;56.47;28.17;;;5.80;99.90;;;;;;5111781;28;20508;-62
2022/03/16 02:45:30;;;;;;;51.45;28.58;;;5.80;99.90;;;;;;5093053;28;20075;-62
2022/03/16 02:47:56;;;;;;;51.15;27.92;;;5.80;99.90;;;;;;5111306;28;20054;-63
2022/03/16 02:50:22;;;;;;;51.85;27.65;;;5.80;99.90;;;;;;5110491;28;20070;-62
2022/03/16 02:52:48;;;;;;;48.13;28.38;;;5.80;99.90;;;;;;5111246;28;20561;-62
2022/03/16 02:55:14;;;;;;;45.78;26.98;;;5.70;99.90;;;;;;5111528;28;20119;-63
2022/03/16 02:57:40;;;;;;;48.85;28.05;;;5.60;99.90;;;;;;5111672;28;20051;-63
2022/03/16 03:00:08;;;;;;;51.53;28.23;;;5.60;99.90;;;;;;5092420;28;20309;-63
2022/03/16 03:02:34;;;;;;;54.70;29.55;;;5.50;99.90;;;;;;5073402;28;20071;-62
2022/03/16 03:05:00;;;;;;;51.97;29.50;;;5.50;99.90;;;;;;5091042;28;20097;-63
2022/03/16 03:07:26;;;;;;;52.40;30.70;;;5.50;99.90;;;;;;5092826;28;20051;-63
2022/03/16 03:09:51;;;;;;;48.83;28.13;;;5.50;99.90;;;;;;5110889;28;20470;-63
2022/03/16 03:12:17;;;;;;;44.85;26.90;;;5.50;99.90;;;;;;5076060;28;20048;-62
2022/03/16 03:14:43;;;;;;;49.45;27.30;;;5.50;99.90;;;;;;5111611;28;20102;-63
2022/03/16 03:17:09;;;;;;;54.45;27.52;;;5.40;99.90;;;;;;5111066;28;20126;-62
2022/03/16 03:19:35;;;;;;;51.55;27.48;;;5.40;99.90;;;;;;5111081;28;20043;-63
2022/03/16 03:22:01;;;;;;;46.33;25.63;;;5.40;99.90;;;;;;5087407;28;20138;-63
2022/03/16 03:24:27;;;;;;;52.50;27.40;;;5.30;99.90;;;;;;5056093;28;20048;-62
2022/03/16 03:26:53;;;;;;;51.40;29.30;;;5.30;99.90;;;;;;5089997;28;20123;-62
2022/03/16 03:29:19;;;;;;;47.42;27.38;;;5.30;99.90;;;;;;5076990;28;20039;-64
2022/03/16 03:31:45;;;;;;;52.95;29.60;;;5.30;99.90;;;;;;5090333;28;20067;-62
2022/03/16 03:34:11;;;;;;;52.47;27.70;;;5.40;99.90;;;;;;5092064;28;20048;-62
2022/03/16 03:36:36;;;;;;;54.15;27.88;;;5.30;99.90;;;;;;5095621;28;20130;-63
2022/03/16 03:39:02;;;;;;;49.65;28.60;;;5.20;99.90;;;;;;5092209;28;20043;-62
2022/03/16 03:41:28;;;;;;;49.38;28.08;;;5.20;99.90;;;;;;5110571;28;20059;-62
2022/03/16 03:43:55;;;;;;;53.85;28.67;;;5.20;99.90;;;;;;5109093;28;20389;-61
2022/03/16 03:46:20;;;;;;;53.17;30.08;;;5.20;99.90;;;;;;5110957;28;20059;-63
2022/03/16 03:48:46;;;;;;;47.72;28.02;;;5.10;99.90;;;;;;5075325;28;20043;-63
2022/03/16 03:51:12;;;;;;;50.70;28.15;;;5.10;99.90;;;;;;5110483;28;20044;-62
2022/03/16 03:53:37;;;;;;;55.80;29.38;;;5.10;99.90;;;;;;5109878;28;20499;-63
2022/03/16 03:56:04;;;;;;;49.58;29.02;;;5.10;99.90;;;;;;5090012;28;20397;-62
2022/03/16 03:58:30;;;;;;;50.42;27.73;;;5.00;99.90;;;;;;5065200;28;20048;-62
2022/03/16 04:00:57;;;;;;;50.83;28.80;;;5.00;99.90;;;;;;5105907;28;20485;-62
2022/03/16 04:03:23;;;;;;;50.47;28.08;;;5.00;99.90;;;;;;5092107;28;20040;-62
2022/03/16 04:05:49;;;;;;;53.22;28.50;;;5.00;99.90;;;;;;5096332;28;20051;-62
2022/03/16 04:08:15;;;;;;;53.47;28.00;;;4.90;99.90;;;;;;5095991;28;20052;-63
2022/03/16 04:10:40;;;;;;;50.53;27.35;;;4.90;99.90;;;;;;5110489;28;20093;-62
2022/03/16 04:13:07;;;;;;;53.90;28.77;;;4.80;99.90;;;;;;5110057;28;20131;-63
2022/03/16 04:15:32;;;;;;;52.35;28.10;;;4.80;99.90;;;;;;5108771;28;20058;-63
2022/03/16 04:17:59;;;;;;;54.72;29.15;;;4.70;99.90;;;;;;5075506;28;20392;-62
2022/03/16 04:20:25;;;;;;;54.70;29.05;;;4.70;99.90;;;;;;5110031;28;20055;-62
2022/03/16 04:22:51;;;;;;;56.38;29.95;;;4.60;99.90;;;;;;5092262;28;20086;-62
2022/03/16 04:25:17;;;;;;;55.22;28.90;;;4.60;99.90;;;;;;5109343;28;20098;-63
2022/03/16 04:27:43;;;;;;;55.33;28.33;;;4.60;99.90;;;;;;5092230;28;20089;-62
2022/03/16 04:30:09;;;;;;;53.65;29.83;;;4.60;99.90;;;;;;5091225;28;20060;-63
2022/03/16 04:32:35;;;;;;;55.38;31.85;;;4.50;99.90;;;;;;5110471;28;20461;-63
2022/03/16 04:35:00;;;;;;;57.35;30.55;;;4.90;99.90;;;;;;5091663;28;20121;-62
2022/03/16 04:37:26;;;;;;;57.75;30.58;;;4.50;99.90;;;;;;5090444;28;20044;-62
2022/03/16 04:39:52;;;;;;;54.10;30.35;;;4.50;99.90;;;;;;5091625;28;20353;-63
2022/03/16 04:42:18;;;;;;;60.20;30.05;;;4.50;99.90;;;;;;5109969;28;20589;-62
2022/03/16 04:44:43;;;;;;;54.80;30.25;;;4.50;99.90;;;;;;5090634;28;20040;-63
2022/03/16 04:47:09;;;;;;;60.50;33.15;;;4.50;99.90;;;;;;5109808;28;20469;-62
2022/03/16 04:49:35;;;;;;;61.70;32.08;;;4.50;99.90;;;;;;5091477;28;20047;-62
2022/03/16 04:52:01;;;;;;;59.00;30.27;;;4.40;99.90;;;;;;5109017;28;20050;-62
2022/03/16 04:54:28;;;;;;;54.00;29.45;;;4.40;99.90;;;;;;5088486;28;20064;-61
2022/03/16 04:56:55;;;;;;;58.80;30.92;;;4.40;99.90;;;;;;5088300;28;20052;-63
2022/03/16 04:59:21;;;;;;;56.63;31.27;;;4.40;99.90;;;;;;5087863;28;20063;-63
2022/03/16 05:01:47;;;;;;;54.15;29.33;;;4.40;99.90;;;;;;5089535;28;20497;-62
2022/03/16 05:04:12;;;;;;;58.05;29.30;;;4.50;99.90;;;;;;5089181;28;20390;-62
2022/03/16 05:06:38;;;;;;;48.20;28.45;;;4.40;99.90;;;;;;5078895;28;20059;-62
2022/03/16 05:09:04;;;;;;;51.92;29.15;;;4.50;99.90;;;;;;5081241;28;20490;-61
2022/03/16 05:11:29;;;;;;;53.20;29.17;;;4.50;99.90;;;;;;5088169;28;20040;-63
2022/03/16 05:13:56;;;;;;;58.97;31.23;;;4.50;99.90;;;;;;5091090;28;20048;-62
2022/03/16 05:16:22;;;;;;;56.33;28.80;;;4.50;99.90;;;;;;5091166;28;20044;-62
2022/03/16 05:18:48;;;;;;;55.03;30.70;;;4.50;99.90;;;;;;5092833;28;20051;-63
2022/03/16 05:21:14;;;;;;;55.55;29.70;;;4.50;99.90;;;;;;5091668;28;20094;-63
2022/03/16 05:23:40;;;;;;;53.38;28.60;;;4.50;99.90;;;;;;5092801;28;20070;-63
2022/03/16 05:26:06;;;;;;;53.47;32.05;;;4.50;99.90;;;;;;5091783;28;20505;-63
2022/03/16 05:28:32;;;;;;;54.20;30.38;;;4.50;99.90;;;;;;5077246;28;20067;-62
2022/03/16 05:30:58;;;;;;;55.80;31.45;;;4.50;99.90;;;;;;5091853;28;20048;-62
2022/03/16 05:33:24;;;;;;;50.05;28.48;;;4.60;99.90;;;;;;5092492;28;20441;-62
2022/03/16 05:35:50;;;;;;;52.88;28.92;;;4.60;99.90;;;;;;5092986;28;20055;-63
2022/03/16 05:38:17;;;;;;;52.95;29.50;;;4.60;99.90;;;;;;5090625;28;20145;-62
2022/03/16 05:40:43;;;;;;;50.17;27.58;;;4.60;99.90;;;;;;5092347;28;20040;-62
2022/03/16 05:43:10;;;;;;;51.97;27.50;;;4.60;99.90;;;;;;5092058;28;20044;-62
2022/03/16 05:45:37;;;;;;;51.45;27.98;;;4.60;99.90;;;;;;5086413;28;20112;-65
2022/03/16 05:48:03;;;;;;;52.13;28.15;;;4.50;99.90;;;;;;5083565;28;20110;-64
2022/03/16 05:50:29;;;;;;;58.33;28.27;;;4.50;99.90;;;;;;5083569;28;20048;-63
2022/03/16 05:52:56;;;;;;;55.15;30.00;;;4.50;99.90;;;;;;5091428;28;20048;-62
2022/03/16 05:55:22;;;;;;;52.13;26.02;;;4.50;99.90;;;;;;5090059;28;20382;-62
2022/03/16 05:57:49;;;;;;;50.83;26.40;;;4.50;99.90;;;;;;5091120;28;20055;-63
2022/03/16 06:00:16;;;;;;;50.85;30.80;;;4.50;99.90;;;;;;5073512;28;20062;-65
2022/03/16 06:02:46;;;;;;;59.22;29.83;;;4.50;99.90;;;;;;5092404;28;20052;-61
2022/03/16 06:05:13;;;;;;;53.13;29.17;;;4.50;99.90;;;;;;5091896;28;20040;-62
2022/03/16 06:07:40;;;;;;;52.83;30.20;;;4.60;99.90;;;;;;5091505;28;20375;-62
2022/03/16 06:10:08;;;;;;;59.97;30.45;;;4.60;99.90;;;;;;5090447;28;20056;-62
2022/03/16 06:12:34;;;;;;;57.05;29.52;;;4.60;99.90;;;;;;5090540;28;20103;-62
2022/03/16 06:15:00;;;;;;;51.28;28.60;;;4.70;99.90;;;;;;5092032;28;20524;-61
2022/03/16 06:17:26;;;;;;;52.88;27.98;;;4.70;99.90;;;;;;5090871;28;20091;-62
2022/03/16 06:19:51;;;;;;;57.10;28.08;;;4.70;99.90;;;;;;5091146;28;20115;-62
2022/03/16 06:22:17;;;;;;;52.97;27.42;;;4.70;99.90;;;;;;5090612;28;20044;-62
2022/03/16 06:24:42;;;;;;;50.22;27.05;;;4.70;99.90;;;;;;5091579;28;20040;-62
2022/03/16 06:27:08;;;;;;;55.00;28.40;;;4.70;99.90;;;;;;5090815;28;20101;-62
2022/03/16 06:29:34;;;;;;;56.85;28.45;;;4.70;99.90;;;;;;5088508;28;20131;-62
2022/03/16 06:32:00;;;;;;;52.38;27.95;;;4.70;99.90;;;;;;5071531;28;20467;-64
2022/03/16 06:34:25;;;;;;;55.28;27.48;;;4.80;99.90;;;;;;5071231;28;20040;-62
2022/03/16 06:36:51;;;;;;;56.08;30.10;;;4.70;99.90;;;;;;5075339;28;20044;-63
2022/03/16 06:39:17;;;;;;;46.10;25.38;;;4.70;99.90;;;;;;5079265;28;20093;-62
2022/03/16 06:41:43;;;;;;;53.97;29.10;;;4.80;99.90;;;;;;5082326;28;20049;-62
2022/03/16 06:44:10;;;;;;;64.13;30.50;;;4.80;99.90;;;;;;5084417;28;20044;-62
2022/03/16 06:46:37;;;;;;;51.63;28.33;;;4.80;99.90;;;;;;5085638;28;20093;-61
2022/03/16 06:49:03;;;;;;;55.92;29.95;;;4.80;99.90;;;;;;5089404;28;20036;-62
2022/03/16 06:51:29;;;;;;;55.08;29.17;;;4.90;99.90;;;;;;5088501;28;20051;-63
2022/03/16 06:53:55;;;;;;;47.80;26.45;;;4.90;99.90;;;;;;5089031;28;20492;-62
2022/03/16 06:56:20;;;;;;;50.38;28.25;;;4.90;99.90;;;;;;5110170;28;20047;-62
2022/03/16 06:58:46;;;;;;;53.70;27.17;;;4.90;99.90;;;;;;5086041;28;20048;-62
2022/03/16 07:01:12;;;;;;;52.80;27.50;;;4.90;99.90;;;;;;5100781;28;20120;-64
2022/03/16 07:03:38;;;;;;;50.88;28.52;;;5.20;99.90;;;;;;5075259;28;20048;-63
2022/03/16 07:06:03;;;;;;;52.13;27.67;;;5.10;99.90;;;;;;5056233;28;20504;-62
2022/03/16 07:08:29;;;;;;;52.70;27.08;;;5.10;99.90;;;;;;5103989;28;20065;-63
2022/03/16 07:10:55;;;;;;;44.33;26.58;;;5.20;99.90;;;;;;5092837;28;20048;-63
2022/03/16 07:13:20;;;;;;;45.72;25.65;;;5.20;99.90;;;;;;5074122;28;20131;-62
2022/03/16 07:15:46;;;;;;;47.28;25.70;;;5.20;99.90;;;;;;5091000;28;20055;-63
2022/03/16 07:18:12;;;;;;;44.75;24.10;;;5.30;99.90;;;;;;5080441;28;20054;-62
2022/03/16 07:20:39;;;;;;;45.08;26.73;;;5.30;99.90;;;;;;5110590;28;20082;-62
2022/03/16 07:23:12;;;;;;;44.88;23.13;;;5.40;99.90;;;;;;5080057;28;20044;-62
2022/03/16 07:25:48;;;;;;;47.55;26.45;;;5.40;99.90;;;;;;5072610;28;20596;-63
2022/03/16 07:28:16;;;;;;;47.20;25.58;;;5.40;99.90;;;;;;5096104;28;20044;-63
2022/03/16 07:30:42;;;;;;;52.45;27.67;;;5.50;99.90;;;;;;5108252;28;20116;-62
2022/03/16 07:33:08;;;;;;;47.20;27.58;;;5.50;99.90;;;;;;5091833;28;20145;-64
2022/03/16 07:35:35;;;;;;;45.95;26.00;;;5.60;99.90;;;;;;5090000;28;20131;-62
2022/03/16 07:38:02;;;;;;;49.10;28.15;;;5.90;99.90;;;;;;5080923;28;20048;-63
2022/03/16 07:40:33;;;;;;;46.90;26.58;;;6.10;99.90;;;;;;5084217;28;20047;-63
2022/03/16 07:42:59;;;;;;;41.97;24.30;;;6.40;99.90;;;;;;5110458;28;20059;-62
2022/03/16 07:45:25;;;;;;;39.45;24.40;;;6.80;99.90;;;;;;5092242;28;20458;-62
2022/03/16 07:47:53;;;;;;;41.35;25.40;;;7.10;99.90;;;;;;5091570;28;20044;-62
2022/03/16 07:50:19;;;;;;;42.33;23.90;;;7.20;99.90;;;;;;5110667;28;20054;-62
2022/03/16 07:52:46;;;;;;;39.33;22.88;;;7.20;99.90;;;;;;5108451;28;20078;-61
2022/03/16 07:55:13;;;;;;;36.92;22.10;;;7.20;99.90;;;;;;5087725;28;20052;-63
2022/03/16 07:57:41;;;;;;;33.97;22.55;;;7.20;99.90;;;;;;5089389;28;20089;-62
2022/03/16 08:00:12;;;;;;;34.80;22.33;;;7.30;99.90;;;;;;5090633;28;20063;-62
2022/03/16 08:02:39;;;;;;;39.60;23.50;;;7.40;99.90;;;;;;5089125;28;20369;-61
2022/03/16 08:05:06;;;;;;;38.95;21.98;;;7.50;99.90;;;;;;5090055;28;20047;-62
2022/03/16 08:07:31;;;;;;;33.88;20.20;;;7.70;99.90;;;;;;5088650;28;20058;-61
2022/03/16 08:09:58;;;;;;;38.67;22.70;;;7.90;99.90;;;;;;5083796;28;20393;-61
2022/03/16 08:12:25;;;;;;;39.05;22.08;;;8.20;99.90;;;;;;5069989;28;20048;-63
2022/03/16 08:14:51;;;;;;;32.17;21.85;;;8.40;99.90;;;;;;5069433;28;20066;-62
2022/03/16 08:17:17;;;;;;;32.33;21.98;;;8.60;99.90;;;;;;5074802;28;20052;-61
2022/03/16 08:19:43;;;;;;;35.50;21.10;;;8.80;99.90;;;;;;5089877;28;20048;-62
2022/03/16 08:22:09;;;;;;;32.55;21.58;;;8.90;99.90;;;;;;5090008;28;20051;-61
2022/03/16 08:24:34;;;;;;;34.33;21.45;;;9.10;99.90;;;;;;5088558;28;20481;-61
2022/03/16 08:27:00;;;;;;;32.03;20.52;;;9.40;99.90;;;;;;5087311;28;20086;-62
2022/03/16 08:29:26;;;;;;;35.83;20.75;;;9.70;99.90;;;;;;5088589;28;20048;-64
2022/03/16 08:31:52;;;;;;;29.88;18.50;;;10.00;99.90;;;;;;5071987;28;20051;-62
2022/03/16 08:34:18;;;;;;;30.73;20.77;;;10.40;99.90;;;;;;5088928;28;20044;-63
2022/03/16 08:36:44;;;;;;;27.88;18.27;;;10.60;99.90;;;;;;5082828;28;20071;-62
2022/03/16 08:39:10;;;;;;;26.55;19.63;;;10.70;99.90;;;;;;5070066;28;20048;-62
2022/03/16 08:41:36;;;;;;;28.92;19.70;;;11.00;99.90;;;;;;5071932;28;20514;-60
2022/03/16 08:44:02;;;;;;;26.13;18.08;;;11.40;99.90;;;;;;5084998;28;20130;-61
2022/03/16 08:46:29;;;;;;;26.00;18.73;;;11.70;99.90;;;;;;5070186;28;20048;-64
2022/03/16 08:48:55;;;;;;;27.38;19.38;;;12.10;99.90;;;;;;5093372;28;20139;-61
2022/03/16 08:51:21;;;;;;;30.73;19.85;;;12.50;99.90;;;;;;5092491;28;20127;-62
2022/03/16 08:53:47;;;;;;;24.15;17.92;;;12.80;99.90;;;;;;5086951;28;20037;-62
2022/03/16 08:56:13;;;;;;;26.50;18.85;;;13.10;99.90;;;;;;5107457;28;20051;-65
2022/03/16 08:58:39;;;;;;;26.42;18.13;;;13.30;99.90;;;;;;5101519;28;20052;-62
2022/03/16 09:01:05;;;;;;;24.88;18.75;;;13.40;99.90;;;;;;5108114;28;20117;-62
2022/03/16 09:03:31;;;;;;;25.83;18.75;;;13.60;99.90;;;;;;5107597;28;20051;-64
2022/03/16 09:05:59;;;;;;;27.42;17.23;;;13.70;99.90;;;;;;5105251;28;20455;-62
2022/03/16 09:08:24;;;;;;;24.40;18.58;;;13.90;99.90;;;;;;5102233;28;20052;-65
2022/03/16 09:10:50;;;;;;;26.40;19.13;;;14.30;99.90;;;;;;5088850;28;20040;-62
2022/03/16 09:13:17;;;;;;;25.95;18.60;;;14.80;99.90;;;;;;5108938;28;20052;-63
2022/03/16 09:15:43;;;;;;;24.88;18.80;;;15.10;99.90;;;;;;5090712;28;20135;-62
2022/03/16 09:18:10;;;;;;;23.35;16.90;;;15.40;99.90;;;;;;5110623;28;20109;-62
2022/03/16 09:20:36;;;;;;;23.77;17.83;;;15.40;99.90;;;;;;5086399;28;20591;-63
2022/03/16 09:23:02;;;;;;;26.15;16.05;;;14.90;99.90;;;;;;5080001;28;20132;-61
2022/03/16 09:25:28;;;;;;;23.90;17.27;;;14.20;99.90;;;;;;5068135;28;20134;-62
2022/03/16 09:27:54;;;;;;;24.35;17.50;;;13.70;99.90;;;;;;5104772;28;20043;-63
2022/03/16 09:30:21;;;;;;;26.42;17.15;;;13.20;99.90;;;;;;5068131;28;20063;-62
2022/03/16 09:32:47;;;;;;;22.90;14.73;;;13.00;99.90;;;;;;5089054;28;20124;-63
2022/03/16 09:35:12;;;;;;;25.88;17.15;;;13.00;99.90;;;;;;5106225;28;20159;-64
2022/03/16 09:37:40;;;;;;;27.15;17.58;;;12.90;99.90;;;;;;5099380;28;20096;-61
2022/03/16 09:40:06;;;;;;;26.63;16.33;;;13.00;99.90;;;;;;5078686;28;20070;-63
2022/03/16 09:42:33;;;;;;;26.95;19.15;;;12.80;99.90;;;;;;5084522;28;20446;-63
2022/03/16 09:45:02;;;;;;;25.45;17.15;;;12.60;99.90;;;;;;5107888;28;20043;-63
2022/03/16 09:47:30;;;;;;;22.55;14.82;;;12.30;99.90;;;;;;5091353;28;20104;-62
2022/03/16 09:49:56;;;;;;;29.13;19.75;;;12.30;99.90;;;;;;5090140;28;20115;-63
2022/03/16 09:52:26;;;;;;;26.33;17.30;;;12.20;99.90;;;;;;5094921;28;20072;-63
2022/03/16 09:54:55;;;;;;;24.52;17.40;;;12.20;99.90;;;;;;5077853;28;20147;-63
2022/03/16 09:57:21;;;;;;;21.58;14.30;;;12.20;99.90;;;;;;5080689;28;20064;-62
2022/03/16 09:59:46;;;;;;;23.35;14.90;;;12.30;99.90;;;;;;5089966;28;20061;-62
2022/03/16 10:02:16;;;;;;;27.73;16.20;;;12.40;99.90;;;;;;5076657;28;20040;-63
2022/03/16 10:04:42;;;;;;;23.77;15.88;;;12.40;99.90;;;;;;5112079;28;20127;-63
2022/03/16 10:07:08;;;;;;;21.08;15.00;;;12.40;99.90;;;;;;5093421;28;20165;-62
2022/03/16 10:15:14;;;;;;;22.90;13.00;;;12.70;99.90;;;;;;5107238;28;20045;-63
2022/03/16 10:17:44;;;;;;;19.42;13.38;;;12.70;99.90;;;;;;5111588;28;20532;-63
2022/03/16 10:20:23;;;;;;;33.63;13.30;;;12.80;99.90;;;;;;5075368;28;20050;-62
2022/03/16 10:23:01;;;;;;;16.92;9.75;;;12.80;99.90;;;;;;5109768;28;20104;-62
2022/03/16 10:25:29;;;;;;;17.55;10.75;;;12.90;99.90;;;;;;5110864;28;20100;-63
2022/03/16 10:28:23;;;;;;;15.70;9.45;;;12.90;99.90;;;;;;5076669;28;20059;-63
2022/03/16 10:31:00;;;;;;;14.07;10.30;;;13.00;99.90;;;;;;5093219;28;20458;-61
2022/03/16 10:33:33;;;;;;;13.63;9.73;;;12.90;99.90;;;;;;5091229;28;20052;-62
2022/03/16 10:36:11;;;;;;;16.40;9.48;;;13.00;99.90;;;;;;5086706;28;20040;-62
2022/03/16 10:38:37;;;;;;;13.48;9.07;;;13.00;99.90;;;;;;5082130;28;20036;-62
2022/03/16 10:46:46;;;;;;;16.10;9.90;;;13.00;99.90;;;;;;5111616;28;20051;-61
2022/03/16 10:49:16;;;;;;;15.63;10.65;;;13.00;99.90;;;;;;5110427;28;20039;-63
2022/03/16 10:51:44;;;;;;;16.38;10.95;;;13.10;99.90;;;;;;5074811;28;20042;-64
2022/03/16 10:54:14;;;;;;;17.85;10.40;;;13.10;99.90;;;;;;5110221;28;20463;-61
2022/03/16 10:56:41;;;;;;;11.82;8.15;;;13.10;99.90;;;;;;5080188;28;20093;-63
2022/03/16 10:59:07;;;;;;;18.10;12.60;;;13.10;99.90;;;;;;5084662;28;20063;-63
2022/03/16 11:01:40;;;;;;;15.93;10.18;;;13.00;99.90;;;;;;5081826;28;20466;-61
2022/03/16 11:04:06;;;;;;;17.38;12.38;;;13.00;99.90;;;;;;5083246;28;20040;-63
2022/03/16 11:06:35;;;;;;;17.10;12.32;;;13.00;99.90;;;;;;5107020;28;20067;-62
2022/03/16 11:09:01;;;;;;;15.65;10.85;;;13.00;99.90;;;;;;5075878;28;20047;-62
2022/03/16 11:14:13;;;;;;;9.13;6.75;;;13.10;99.90;;;;;;5101769;28;20047;-61
2022/03/16 11:16:40;;;;;;;14.27;7.97;;;13.30;99.90;;;;;;5093169;28;20378;-63
2022/03/16 11:19:06;;;;;;;15.77;11.13;;;13.30;99.90;;;;;;5092490;28;20414;-62
2022/03/16 11:21:53;;;;;;;14.82;9.93;;;13.30;99.90;;;;;;5107511;28;20141;-62
2022/03/16 11:24:23;;;;;;;17.10;9.48;;;13.40;99.90;;;;;;5081405;28;20143;-63
2022/03/16 11:27:10;;;;;;;14.70;9.50;;;13.50;99.90;;;;;;5092315;28;20428;-61
2022/03/16 11:30:01;;;;;;;15.57;9.73;;;13.60;99.90;;;;;;5111457;28;20130;-63
2022/03/16 11:32:35;;;;;;;14.50;10.10;;;13.50;99.90;;;;;;5110663;28;20043;-63
2022/03/16 11:35:02;;;;;;;17.13;11.55;;;13.60;99.90;;;;;;5092392;28;20046;-64
2022/03/16 11:37:34;;;;;;;15.68;10.57;;;13.60;99.90;;;;;;5110446;28;20572;-63
2022/03/16 11:40:09;;;;;;;16.98;10.98;;;13.60;99.90;;;;;;5110754;28;20056;-64
2022/03/16 11:42:36;;;;;;;17.13;10.88;;;13.60;99.90;;;;;;5106717;28;20512;-63
2022/03/16 11:45:36;;;;;;;14.93;9.73;;;13.60;99.90;;;;;;5097882;28;20071;-62
2022/03/16 11:48:26;;;;;;;16.75;9.75;;;13.60;99.90;;;;;;5110204;28;20044;-64
2022/03/16 11:51:17;;;;;;;15.77;10.73;;;13.60;99.90;;;;;;5092591;28;20062;-63
2022/03/16 11:53:57;;;;;;;16.23;10.90;;;13.70;99.90;;;;;;5109093;28;20047;-63
2022/03/16 11:56:36;;;;;;;14.75;8.80;;;13.70;99.90;;;;;;5110477;28;20055;-63
2022/03/16 11:59:23;;;;;;;15.30;10.32;;;13.80;99.90;;;;;;5110337;28;20062;-64
2022/03/16 12:02:01;;;;;;;13.48;8.93;;;13.80;99.90;;;;;;5096669;28;20048;-63
2022/03/16 12:04:46;;;;;;;13.93;10.43;;;13.80;99.90;;;;;;5091923;28;20043;-63
2022/03/16 12:07:14;;;;;;;13.93;10.07;;;13.90;99.90;;;;;;5091851;28;20097;-63
2022/03/16 12:09:45;;;;;;;13.27;10.02;;;13.80;99.90;;;;;;5110867;28;20130;-63
2022/03/16 12:15:28;;;;;;;15.82;9.50;;;13.80;99.90;;;;;;5109101;28;20055;-63
2022/03/16 12:17:54;;;;;;;17.08;9.75;;;13.80;99.90;;;;;;5074806;28;20054;-64
2022/03/16 12:20:23;;;;;;;13.52;9.43;;;13.80;99.90;;;;;;5110743;28;20047;-63
2022/03/16 12:22:56;;;;;;;15.95;9.27;;;13.80;99.90;;;;;;5111947;28;20408;-65
2022/03/16 12:25:29;;;;;;;16.98;10.60;;;13.90;99.90;;;;;;5094742;28;20511;-62
2022/03/16 12:31:03;;;;;;;16.73;9.38;;;14.00;99.90;;;;;;5114791;28;20142;-64
2022/03/16 12:33:30;;;;;;;13.93;9.43;;;14.10;99.90;;;;;;5096523;28;20048;-63
2022/03/16 12:36:13;;;;;;;13.55;8.82;;;14.10;99.90;;;;;;5088701;28;20043;-63
2022/03/16 12:38:45;;;;;;;16.73;9.13;;;14.10;99.90;;;;;;5096615;28;20055;-64
2022/03/16 12:44:01;;;;;;;13.95;7.88;;;14.20;99.90;;;;;;5114243;28;20052;-64
2022/03/16 12:46:52;;;;;;;18.15;9.60;;;14.10;99.90;;;;;;5113628;28;20047;-63
2022/03/16 12:49:20;;;;;;;13.57;8.45;;;14.10;99.90;;;;;;5113987;28;20389;-62
2022/03/16 12:51:55;;;;;;;14.60;8.98;;;14.10;99.90;;;;;;5088639;28;20083;-65
2022/03/16 12:54:23;;;;;;;17.23;8.43;;;14.00;99.90;;;;;;5083305;28;20514;-62
2022/03/16 12:56:51;;;;;;;15.77;10.30;;;14.00;99.90;;;;;;5093442;28;20063;-62
2022/03/16 12:59:22;;;;;;;13.02;8.25;;;14.00;99.90;;;;;;5085383;28;20050;-62
2022/03/16 13:01:48;;;;;;;14.25;8.25;;;14.00;99.90;;;;;;5075048;28;20052;-62